Time;durP1;ratioP1;P1;durP2;ratioP2;P2;SDS_P1;SDS_P2;PMS_P1;PMS_P2;Temp;Humidity;BMP_temperature;BMP_pressure;BME280_temperature;BME280_humidity;BME280_pressure;Samples;Min_cycle;Max_cycle;Signal;HPM_P1;HPM_P2
2022/03/15 00:01:25;;;;;;;2.53;1.50;;;;;;;7.63;92.30;101438.91;5027319;28;20183;-58
2022/03/15 00:03:51;;;;;;;1.93;1.43;;;;;;;7.55;92.91;101437.00;5026729;28;20194;-58
2022/03/15 00:06:17;;;;;;;3.53;1.50;;;;;;;7.46;93.27;101443.66;5026569;28;20645;-57
2022/03/15 00:08:44;;;;;;;3.40;1.57;;;;;;;7.39;93.74;101440.91;5023492;28;20203;-60
2022/03/15 00:11:10;;;;;;;3.47;1.60;;;;;;;7.30;94.13;101442.47;5028059;28;20196;-57
2022/03/15 00:13:38;;;;;;;2.93;2.00;;;;;;;7.26;94.77;101435.50;5027037;28;20198;-56
2022/03/15 00:16:04;;;;;;;4.07;2.07;;;;;;;7.22;95.45;101445.69;5025890;28;20201;-57
2022/03/15 00:18:30;;;;;;;3.10;2.20;;;;;;;7.13;95.91;101434.31;5023512;28;20225;-55
2022/03/15 00:21:01;;;;;;;2.37;2.07;;;;;;;7.07;96.17;101425.59;5028595;28;20629;-57
2022/03/15 00:23:27;;;;;;;3.67;2.10;;;;;;;7.00;96.81;101417.75;5023547;28;20657;-58
2022/03/15 00:25:53;;;;;;;3.17;2.17;;;;;;;6.96;96.96;101421.06;5025215;28;20188;-58
2022/03/15 00:28:19;;;;;;;3.33;2.30;;;;;;;6.96;97.61;101425.31;5024656;28;20205;-56
2022/03/15 00:30:45;;;;;;;3.67;2.20;;;;;;;6.92;97.70;101419.25;5025738;28;20499;-58
2022/03/15 00:33:11;;;;;;;2.30;2.10;;;;;;;6.90;97.90;101418.31;5022368;28;20190;-57
2022/03/15 00:35:39;;;;;;;3.10;2.23;;;;;;;6.86;98.10;101404.53;5025299;28;20197;-56
2022/03/15 00:38:05;;;;;;;3.03;1.93;;;;;;;6.85;98.28;101402.78;5024378;28;20661;-56
2022/03/15 00:40:30;;;;;;;2.00;1.80;;;;;;;6.84;98.34;101406.19;5030444;28;20192;-57
2022/03/15 00:42:55;;;;;;;2.83;1.87;;;;;;;6.82;98.62;101397.56;5025434;28;20187;-58
2022/03/15 00:45:23;;;;;;;2.63;2.17;;;;;;;6.82;98.63;101399.28;5026576;28;20707;-56
2022/03/15 00:47:52;;;;;;;3.23;2.00;;;;;;;6.79;98.77;101397.50;5025270;28;20703;-56
2022/03/15 00:50:19;;;;;;;3.37;1.97;;;;;;;6.78;99.02;101389.72;5025088;28;20188;-58
2022/03/15 00:52:45;;;;;;;2.50;1.90;;;;;;;6.78;99.04;101397.44;5028986;28;20234;-57
2022/03/15 00:55:11;;;;;;;2.57;1.70;;;;;;;6.76;99.28;101389.69;5025320;28;20195;-58
2022/03/15 00:57:36;;;;;;;3.47;2.30;;;;;;;6.76;99.44;101381.97;5028140;28;20299;-58
2022/03/15 01:00:05;;;;;;;3.10;2.07;;;;;;;6.74;99.51;101383.66;5031110;28;20235;-58
2022/03/15 01:02:30;;;;;;;2.30;1.90;;;;;;;6.75;99.46;101384.50;5034378;28;20253;-57
2022/03/15 01:04:55;;;;;;;3.97;2.10;;;;;;;6.74;99.56;101381.06;5034426;28;20288;-58
2022/03/15 01:07:21;;;;;;;3.37;2.00;;;;;;;6.74;99.44;101372.47;5022796;28;20197;-58
2022/03/15 01:09:46;;;;;;;2.43;2.07;;;;;;;6.74;99.70;101375.03;5028983;28;20227;-58
2022/03/15 01:12:12;;;;;;;3.03;1.87;;;;;;;6.71;99.86;101371.59;5021876;28;20268;-58
2022/03/15 01:14:37;;;;;;;3.37;1.70;;;;;;;6.68;99.84;101363.78;5028937;28;20630;-57
2022/03/15 01:17:03;;;;;;;2.77;1.90;;;;;;;6.66;99.95;101367.13;5026503;28;20265;-60
2022/03/15 01:19:29;;;;;;;2.40;1.87;;;;;;;6.63;100.00;101361.94;5021975;28;20228;-57
2022/03/15 01:21:55;;;;;;;2.17;1.63;;;;;;;6.60;100.00;101372.16;5026279;28;20186;-58
2022/03/15 01:24:21;;;;;;;2.00;1.80;;;;;;;6.56;100.00;101373.78;5028398;28;20245;-58
2022/03/15 01:26:47;;;;;;;2.53;1.90;;;;;;;6.52;100.00;101374.53;5029018;28;20188;-58
2022/03/15 01:29:13;;;;;;;5.03;2.00;;;;;;;6.44;100.00;101373.44;5031804;28;20203;-58
2022/03/15 01:31:38;;;;;;;4.33;2.30;;;;;;;6.37;100.00;101367.28;5031118;28;20187;-58
2022/03/15 01:34:04;;;;;;;3.37;1.93;;;;;;;6.30;100.00;101362.81;5028182;28;20556;-58
2022/03/15 01:36:30;;;;;;;3.53;2.03;;;;;;;6.27;100.00;101352.44;5025779;28;20191;-57
2022/03/15 01:38:57;;;;;;;6.60;2.70;;;;;;;6.23;100.00;101349.78;5031334;28;20208;-58
2022/03/15 01:41:23;;;;;;;2.47;2.13;;;;;;;6.16;100.00;101353.06;5024411;28;20184;-57
2022/03/15 01:43:49;;;;;;;3.60;2.60;;;;;;;6.20;100.00;101349.72;5027193;28;20194;-58
2022/03/15 01:46:15;;;;;;;3.37;2.03;;;;;;;6.15;100.00;101360.72;5026856;28;20284;-58
2022/03/15 01:48:41;;;;;;;3.83;2.40;;;;;;;6.14;100.00;101366.66;5022606;28;20214;-58
2022/03/15 01:51:07;;;;;;;4.77;2.17;;;;;;;6.16;100.00;101359.88;5027900;28;20210;-59
2022/03/15 01:53:33;;;;;;;2.33;1.90;;;;;;;6.17;100.00;101371.91;5027378;28;20198;-58
2022/03/15 01:56:00;;;;;;;2.63;1.83;;;;;;;6.17;100.00;101369.34;5028798;28;20191;-60
2022/03/15 01:58:25;;;;;;;3.60;2.13;;;;;;;6.17;100.00;101370.22;5029902;28;20233;-57
2022/03/15 02:00:51;;;;;;;4.00;2.83;;;;;;;6.16;100.00;101373.63;5028634;28;20189;-60
2022/03/15 02:03:17;;;;;;;3.07;2.30;;;;;;;6.16;100.00;101370.16;5026001;28;20193;-58
2022/03/15 02:05:42;;;;;;;3.20;2.30;;;;;;;6.14;100.00;101365.00;5026811;28;20636;-58
2022/03/15 02:08:12;;;;;;;3.23;2.27;;;;;;;6.13;100.00;101365.81;5029853;28;20306;-59
2022/03/15 02:10:38;;;;;;;3.70;2.30;;;;;;;6.12;100.00;101370.94;5030103;28;20180;-57
2022/03/15 02:13:04;;;;;;;2.77;2.50;;;;;;;6.10;100.00;101370.88;5028693;28;20184;-58
2022/03/15 02:15:29;;;;;;;3.17;2.60;;;;;;;6.10;100.00;101373.44;5024376;28;20202;-57
2022/03/15 02:17:55;;;;;;;4.13;2.13;;;;;;;6.09;100.00;101369.13;5030299;28;20209;-58
2022/03/15 02:20:21;;;;;;;3.80;2.80;;;;;;;6.09;100.00;101371.69;5029580;28;20208;-58
2022/03/15 02:22:46;;;;;;;3.30;2.27;;;;;;;6.10;100.00;101371.75;5031998;28;20632;-58
2022/03/15 02:25:12;;;;;;;3.87;2.30;;;;;;;6.12;100.00;101371.78;5035734;28;20271;-59
2022/03/15 02:27:38;;;;;;;2.97;2.53;;;;;;;6.13;100.00;101378.66;5020382;28;20669;-59
2022/03/15 02:30:05;;;;;;;3.27;2.60;;;;;;;6.13;100.00;101370.97;5027947;28;20199;-58
2022/03/15 02:32:30;;;;;;;4.67;2.53;;;;;;;6.14;100.00;101371.81;5029550;28;20194;-59
2022/03/15 02:34:56;;;;;;;3.27;2.60;;;;;;;6.14;100.00;101365.00;5027364;28;20246;-58
2022/03/15 02:37:21;;;;;;;2.83;2.63;;;;;;;6.16;100.00;101367.59;5026771;28;20187;-59
2022/03/15 02:39:47;;;;;;;3.13;2.40;;;;;;;6.17;100.00;101365.06;5038775;28;20752;-59
2022/03/15 02:42:12;;;;;;;3.67;2.67;;;;;;;6.17;100.00;101349.66;5029226;28;20273;-59
2022/03/15 02:44:37;;;;;;;4.03;2.43;;;;;;;6.19;100.00;101354.81;5031660;28;20641;-59
2022/03/15 02:47:03;;;;;;;4.03;2.60;;;;;;;6.20;100.00;101357.41;5028033;28;20697;-59
2022/03/15 02:49:28;;;;;;;3.00;2.53;;;;;;;6.21;100.00;101361.72;5027988;28;20219;-60
2022/03/15 02:51:54;;;;;;;5.83;3.20;;;;;;;6.22;100.00;101349.78;5026533;28;20197;-57
2022/03/15 02:54:19;;;;;;;3.50;2.87;;;;;;;6.20;100.00;101349.72;5021324;28;20303;-58
2022/03/15 02:56:45;;;;;;;5.47;2.93;;;;;;;6.19;100.00;101348.00;5029285;28;20201;-59
2022/03/15 02:59:14;;;;;;;3.80;3.20;;;;;;;6.16;100.00;101354.72;5030734;28;20219;-58
2022/03/15 03:01:45;;;;;;;3.90;3.00;;;;;;;6.13;100.00;101341.78;5033991;28;20195;-56
2022/03/15 03:04:11;;;;;;;5.33;3.60;;;;;;;6.09;100.00;101346.00;5022721;28;20182;-58
2022/03/15 03:06:38;;;;;;;4.07;3.40;;;;;;;6.07;100.00;101347.66;5025022;28;20209;-57
2022/03/15 03:09:04;;;;;;;4.27;3.80;;;;;;;6.02;100.00;101351.81;5027535;28;20211;-58
2022/03/15 03:11:30;;;;;;;9.03;4.30;;;;;;;6.05;100.00;101352.75;5027067;28;20189;-57
2022/03/15 03:14:00;;;;;;;6.60;4.00;;;;;;;6.00;100.00;101343.19;5026390;28;20608;-57
2022/03/15 03:16:26;;;;;;;5.37;3.67;;;;;;;6.00;100.00;101345.75;5027330;28;20185;-57
2022/03/15 03:18:54;;;;;;;4.40;3.47;;;;;;;6.01;100.00;101350.94;5025610;28;20901;-58
2022/03/15 03:21:20;;;;;;;3.83;3.43;;;;;;;6.02;100.00;101350.09;5025138;28;20629;-58
2022/03/15 03:23:46;;;;;;;3.80;3.20;;;;;;;6.05;100.00;101352.75;5025361;28;20421;-58
2022/03/15 03:26:11;;;;;;;5.03;3.60;;;;;;;6.05;100.00;101345.06;5028925;28;20188;-57
2022/03/15 03:28:37;;;;;;;4.57;3.00;;;;;;;6.06;100.00;101338.19;5027353;28;20210;-58
2022/03/15 03:31:04;;;;;;;3.73;3.10;;;;;;;6.09;100.00;101343.44;5027037;28;20653;-58
2022/03/15 03:33:30;;;;;;;4.63;3.30;;;;;;;6.11;100.00;101341.78;5026766;28;20559;-57
2022/03/15 03:35:56;;;;;;;3.93;2.93;;;;;;;6.13;100.00;101352.97;5027063;28;20220;-59
2022/03/15 03:38:21;;;;;;;3.40;2.83;;;;;;;6.16;100.00;101354.72;5023198;28;20217;-58
2022/03/15 03:40:47;;;;;;;3.40;3.07;;;;;;;6.16;100.00;101363.34;5025357;28;20200;-60
2022/03/15 03:43:12;;;;;;;3.83;3.00;;;;;;;6.15;100.00;101361.59;5029475;28;20176;-59
2022/03/15 03:45:38;;;;;;;3.20;2.90;;;;;;;6.14;100.00;101358.97;5026516;28;20664;-58
2022/03/15 03:48:05;;;;;;;3.40;2.77;;;;;;;6.13;100.00;101357.22;5022800;28;20223;-58
2022/03/15 03:50:30;;;;;;;3.30;3.00;;;;;;;6.13;100.00;101364.94;5026835;28;20223;-57
2022/03/15 03:52:56;;;;;;;3.90;3.30;;;;;;;6.11;100.00;101354.63;5032601;28;20713;-57
2022/03/15 03:55:21;;;;;;;3.27;2.97;;;;;;;6.10;100.00;101365.72;5032299;28;20260;-59
2022/03/15 03:57:47;;;;;;;3.30;3.00;;;;;;;6.08;100.00;101352.84;5021149;28;20231;-57
2022/03/15 04:00:13;;;;;;;3.30;3.00;;;;;;;6.07;100.00;101356.25;5027903;28;20295;-58
2022/03/15 04:02:39;;;;;;;3.43;3.07;;;;;;;6.06;100.00;101354.50;5028011;28;20570;-57
2022/03/15 04:05:05;;;;;;;3.67;3.27;;;;;;;6.02;100.00;101350.09;5029898;28;20183;-58
2022/03/15 04:07:30;;;;;;;3.40;2.90;;;;;;;5.97;100.00;101366.19;5026808;28;20189;-57
2022/03/15 04:09:55;;;;;;;4.63;3.47;;;;;;;5.93;100.00;101345.56;5029514;28;20188;-58
2022/03/15 04:12:22;;;;;;;4.07;3.20;;;;;;;5.93;100.00;101352.41;5027507;28;20266;-57
2022/03/15 04:14:48;;;;;;;4.00;3.40;;;;;;;5.94;100.00;101352.44;5024749;28;20218;-59
2022/03/15 04:17:15;;;;;;;3.63;3.03;;;;;;;5.94;100.00;101341.28;5026586;28;20446;-57
2022/03/15 04:19:41;;;;;;;3.77;3.20;;;;;;;5.99;100.00;101341.41;5026199;28;20356;-58
2022/03/15 04:22:06;;;;;;;4.47;3.47;;;;;;;6.01;100.00;101334.66;5025628;28;20295;-59
2022/03/15 04:24:32;;;;;;;5.77;3.47;;;;;;;5.98;100.00;101340.53;5025605;28;20320;-58
2022/03/15 04:26:59;;;;;;;4.30;3.70;;;;;;;5.95;100.00;101332.75;5025206;28;20512;-58
2022/03/15 04:29:25;;;;;;;5.00;3.73;;;;;;;5.91;100.00;101331.78;5025320;28;20216;-60
2022/03/15 04:31:50;;;;;;;3.83;3.43;;;;;;;5.90;100.00;101324.06;5026462;28;20189;-57
2022/03/15 04:34:15;;;;;;;4.47;3.70;;;;;;;5.90;100.00;101335.19;5023917;28;20218;-58
2022/03/15 04:36:41;;;;;;;4.67;3.57;;;;;;;5.91;100.00;101331.78;5026291;28;20195;-57
2022/03/15 04:39:06;;;;;;;4.57;3.30;;;;;;;5.91;100.00;101330.94;5026554;28;20230;-59
2022/03/15 04:41:32;;;;;;;5.43;3.40;;;;;;;5.92;100.00;101323.25;5025173;28;20213;-57
2022/03/15 04:43:57;;;;;;;4.47;3.60;;;;;;;5.92;100.00;101322.41;5025408;28;20213;-58
2022/03/15 04:46:23;;;;;;;5.60;3.73;;;;;;;5.88;100.00;101311.19;5024582;28;20217;-60
2022/03/15 04:48:49;;;;;;;4.53;4.00;;;;;;;5.83;100.00;101306.72;5024362;28;20215;-59
2022/03/15 04:51:14;;;;;;;4.80;3.73;;;;;;;5.79;100.00;101301.53;5022373;28;20623;-58
2022/03/15 04:53:39;;;;;;;5.53;3.53;;;;;;;5.77;100.00;101295.47;5022346;28;20208;-60
2022/03/15 04:56:05;;;;;;;5.07;3.43;;;;;;;5.76;100.00;101297.97;5032963;28;20193;-57
2022/03/15 04:58:30;;;;;;;4.57;3.60;;;;;;;5.75;100.00;101293.66;5027899;28;20236;-57
2022/03/15 05:00:56;;;;;;;4.53;3.70;;;;;;;5.73;100.00;101293.63;5030520;28;20224;-58
2022/03/15 05:03:21;;;;;;;5.97;3.57;;;;;;;5.71;100.00;101304.72;5030988;28;20180;-58
2022/03/15 05:05:47;;;;;;;5.37;3.50;;;;;;;5.69;100.00;101308.94;5025070;28;20617;-58
2022/03/15 05:08:12;;;;;;;4.07;3.37;;;;;;;5.66;100.00;101307.16;5030920;28;20226;-60
2022/03/15 05:13:23;;;;;;;4.37;3.10;;;;;;;5.59;100.00;101318.06;5031479;28;20198;-59
2022/03/15 05:15:48;;;;;;;3.27;2.90;;;;;;;5.54;100.00;101314.50;5032344;28;20316;-57
2022/03/15 05:18:14;;;;;;;4.07;3.20;;;;;;;5.50;100.00;101310.97;5031263;28;20235;-57
2022/03/15 05:20:39;;;;;;;4.00;3.60;;;;;;;5.48;100.00;101315.19;5034678;28;20677;-58
2022/03/15 05:23:04;;;;;;;5.10;4.20;;;;;;;5.47;100.00;101313.44;5030384;28;20188;-59
2022/03/15 05:25:30;;;;;;;5.70;4.80;;;;;;;5.45;100.00;101315.09;5033150;28;20628;-58
2022/03/15 05:27:55;;;;;;;6.33;4.70;;;;;;;5.45;100.00;101318.56;5031883;28;20544;-57
2022/03/15 05:30:22;;;;;;;5.50;4.80;;;;;;;5.45;100.00;101309.97;5034841;28;20528;-58
2022/03/15 05:32:47;;;;;;;5.43;4.20;;;;;;;5.43;100.00;101314.22;5030477;28;20963;-59
2022/03/15 05:35:13;;;;;;;5.93;4.40;;;;;;;5.43;100.00;101315.06;5034142;28;20263;-56
2022/03/15 05:37:38;;;;;;;4.97;4.27;;;;;;;5.44;100.00;101310.81;5029277;28;20271;-57
2022/03/15 05:40:04;;;;;;;4.90;4.40;;;;;;;5.45;100.00;101323.69;5033636;28;20683;-64
2022/03/15 05:42:30;;;;;;;3.87;3.50;;;;;;;5.47;100.00;101329.75;5038526;28;20233;-58
2022/03/15 05:44:55;;;;;;;4.50;3.93;;;;;;;5.48;100.00;101323.78;5032445;28;20181;-58
2022/03/15 05:47:21;;;;;;;5.17;4.03;;;;;;;5.51;100.00;101323.00;5034639;28;20182;-58
2022/03/15 05:49:46;;;;;;;4.07;3.60;;;;;;;5.56;100.00;101325.69;5030546;28;20204;-57
2022/03/15 05:52:12;;;;;;;4.83;3.63;;;;;;;5.59;100.00;101334.38;5034410;28;20191;-57
2022/03/15 05:54:37;;;;;;;4.30;3.67;;;;;;;5.64;100.00;101334.50;5029977;28;20190;-56
2022/03/15 05:57:03;;;;;;;5.83;3.97;;;;;;;5.68;100.00;101326.03;5028944;28;20241;-59
2022/03/15 05:59:29;;;;;;;5.07;3.90;;;;;;;5.71;100.00;101326.09;5041004;28;20213;-62
2022/03/15 06:01:54;;;;;;;6.10;4.40;;;;;;;5.72;100.00;101333.00;5042813;28;20187;-59
2022/03/15 06:04:21;;;;;;;4.87;4.20;;;;;;;5.76;100.00;101337.38;5038656;28;20185;-59
2022/03/15 06:06:47;;;;;;;7.73;4.87;;;;;;;5.82;100.00;101328.97;5030244;28;20262;-59
2022/03/15 06:09:12;;;;;;;6.33;4.50;;;;;;;5.87;100.00;101344.50;5032034;28;20317;-59
2022/03/15 06:11:39;;;;;;;6.07;3.97;;;;;;;5.93;100.00;101334.41;5018419;28;20275;-58
2022/03/15 06:14:04;;;;;;;6.73;4.57;;;;;;;6.00;100.00;101335.47;5031080;28;20491;-57
2022/03/15 06:16:30;;;;;;;5.67;4.40;;;;;;;6.06;100.00;101330.50;5030540;28;20189;-57
2022/03/15 06:18:55;;;;;;;7.57;4.13;;;;;;;6.12;100.00;101329.81;5031580;28;20207;-58
2022/03/15 06:21:20;;;;;;;4.07;3.37;;;;;;;6.17;100.00;101334.22;5025820;28;20185;-58
2022/03/15 06:23:46;;;;;;;4.63;4.03;;;;;;;6.22;100.00;101337.78;5022398;28;20178;-56
2022/03/15 06:26:11;;;;;;;6.00;4.60;;;;;;;6.28;100.00;101344.78;5032432;28;20246;-58
2022/03/15 06:28:37;;;;;;;5.80;4.27;;;;;;;6.35;100.00;101345.81;5029278;28;20206;-59
2022/03/15 06:31:04;;;;;;;5.17;4.33;;;;;;;6.42;100.00;101350.28;5028341;28;20180;-58
2022/03/15 06:33:29;;;;;;;6.90;4.03;;;;;;;6.48;100.00;101346.97;5024335;28;20706;-59
2022/03/15 06:35:55;;;;;;;4.93;4.30;;;;;;;6.52;100.00;101339.38;5031537;28;20220;-57
2022/03/15 06:38:20;;;;;;;8.17;4.93;;;;;;;6.55;100.00;101336.88;5030963;28;20239;-58
2022/03/15 06:40:48;;;;;;;6.60;5.57;;;;;;;6.61;100.00;101340.44;5030068;28;20196;-59
2022/03/15 06:43:13;;;;;;;7.20;4.90;;;;;;;6.66;100.00;101333.69;5032203;28;20538;-57
2022/03/15 06:45:41;;;;;;;5.80;5.10;;;;;;;6.69;100.00;101332.09;5024577;28;20268;-58
2022/03/15 06:48:07;;;;;;;7.03;5.30;;;;;;;6.73;100.00;101327.88;5027662;28;20224;-58
2022/03/15 06:50:33;;;;;;;6.73;5.13;;;;;;;6.78;100.00;101339.16;5036866;28;20169;-58
2022/03/15 06:52:58;;;;;;;7.53;5.73;;;;;;;6.80;100.00;101337.50;5028605;28;20179;-59
2022/03/15 06:55:24;;;;;;;7.10;5.07;;;;;;;6.83;100.00;101319.53;5023846;28;20640;-57
2022/03/15 06:57:49;;;;;;;6.20;5.60;;;;;;;6.86;100.00;101316.19;5022284;28;20316;-59
2022/03/15 07:00:15;;;;;;;6.83;5.47;;;;;;;6.92;100.00;101315.44;5021349;28;20579;-61
2022/03/15 07:02:41;;;;;;;5.87;4.93;;;;;;;6.95;100.00;101310.38;5018429;28;20590;-59
2022/03/15 07:05:08;;;;;;;5.70;5.20;;;;;;;6.99;100.00;101307.91;5029815;28;20272;-57
2022/03/15 07:07:34;;;;;;;6.43;5.13;;;;;;;7.03;100.00;101307.97;5030427;28;20213;-58
2022/03/15 07:10:01;;;;;;;5.43;4.50;;;;;;;7.08;100.00;101308.91;5030429;28;20201;-59
2022/03/15 07:12:27;;;;;;;6.50;4.87;;;;;;;7.12;100.00;101308.16;5030692;28;20588;-58
2022/03/15 07:14:52;;;;;;;6.43;5.43;;;;;;;7.15;100.00;101314.25;5031215;28;20229;-58
2022/03/15 07:17:19;;;;;;;5.80;5.00;;;;;;;7.19;100.00;101304.00;5028499;28;20329;-59
2022/03/15 07:19:44;;;;;;;6.77;4.80;;;;;;;7.21;100.00;101302.34;5031135;28;20222;-57
2022/03/15 07:22:10;;;;;;;7.97;5.03;;;;;;;7.23;100.00;101304.09;5023708;28;20191;-58
2022/03/15 07:24:35;;;;;;;5.57;4.83;;;;;;;7.26;100.00;101304.19;5025088;28;21191;-60
2022/03/15 07:27:01;;;;;;;6.20;5.03;;;;;;;7.29;100.00;101299.09;5019817;28;20184;-59
2022/03/15 07:29:27;;;;;;;7.33;5.17;;;;;;;7.32;100.00;101293.13;5034236;28;20264;-59
2022/03/15 07:31:53;;;;;;;8.10;4.80;;;;;;;7.35;100.00;101288.06;5030423;28;20198;-58
2022/03/15 07:34:18;;;;;;;5.97;4.83;;;;;;;7.38;100.00;101289.81;5030049;28;20186;-59
2022/03/15 07:36:44;;;;;;;6.07;5.43;;;;;;;7.42;100.00;101287.31;5028223;28;20218;-59
2022/03/15 07:39:09;;;;;;;7.50;5.40;;;;;;;7.45;100.00;101287.38;5027758;28;20206;-59
2022/03/15 07:41:38;;;;;;;6.10;5.47;;;;;;;7.46;100.00;101286.56;5027016;28;20197;-63
2022/03/15 07:44:05;;;;;;;6.53;4.97;;;;;;;7.51;100.00;101278.06;5025672;28;20179;-58
2022/03/15 07:46:30;;;;;;;5.87;5.17;;;;;;;7.55;100.00;101273.00;5024762;28;20189;-59
2022/03/15 07:48:55;;;;;;;5.87;5.03;;;;;;;7.59;100.00;101276.47;5026421;28;20220;-58
2022/03/15 07:51:21;;;;;;;5.97;5.43;;;;;;;7.61;100.00;101286.00;5029755;28;20645;-59
2022/03/15 07:53:46;;;;;;;6.40;5.80;;;;;;;7.63;100.00;101271.44;5030901;28;20460;-58
2022/03/15 07:56:11;;;;;;;5.63;4.60;;;;;;;7.67;100.00;101272.38;5027692;28;20521;-59
2022/03/15 07:58:37;;;;;;;5.53;5.00;;;;;;;7.71;100.00;101263.84;5027701;28;20212;-59
2022/03/15 08:01:04;;;;;;;6.93;5.40;;;;;;;7.76;100.00;101259.63;5029500;28;20622;-58
2022/03/15 08:03:29;;;;;;;6.93;5.70;;;;;;;7.81;100.00;101258.88;5029276;28;20600;-59
2022/03/15 08:05:55;;;;;;;6.50;5.50;;;;;;;7.86;100.00;101258.09;5029703;28;20196;-57
2022/03/15 08:08:20;;;;;;;7.63;5.20;;;;;;;7.89;100.00;101262.44;5042745;28;20665;-59
2022/03/15 08:10:45;;;;;;;5.73;5.17;;;;;;;7.91;100.00;101256.47;5028250;28;20207;-59
2022/03/15 08:13:11;;;;;;;6.27;5.67;;;;;;;7.95;100.00;101257.41;5028190;28;20189;-57
2022/03/15 08:15:37;;;;;;;6.03;5.00;;;;;;;8.00;100.00;101260.94;5017409;28;20650;-59
2022/03/15 08:18:03;;;;;;;7.87;6.53;;;;;;;8.07;100.00;101270.50;5027473;28;20207;-58
2022/03/15 08:20:39;;;;;;;8.17;6.97;;;;;;;8.10;100.00;101261.94;5027609;28;20221;-58
2022/03/15 08:23:05;;;;;;;10.43;8.53;;;;;;;8.15;100.00;101273.19;5019744;28;20182;-58
2022/03/15 08:25:30;;;;;;;12.23;10.17;;;;;;;8.09;100.00;101270.53;5022328;28;20193;-58
2022/03/15 08:27:57;;;;;;;12.53;9.70;;;;;;;8.06;100.00;101266.19;5023550;28;20229;-56
2022/03/15 08:30:23;;;;;;;12.23;9.63;;;;;;;8.05;100.00;101261.84;5030583;28;20191;-59
2022/03/15 08:32:48;;;;;;;10.77;8.50;;;;;;;8.05;100.00;101259.28;5021089;28;20187;-58
2022/03/15 08:35:13;;;;;;;9.23;7.77;;;;;;;8.07;100.00;101259.31;5031187;28;20189;-58
2022/03/15 08:37:39;;;;;;;8.13;7.30;;;;;;;8.10;100.00;101256.78;5028617;28;20187;-59
2022/03/15 08:40:06;;;;;;;7.57;6.77;;;;;;;8.13;100.00;101255.97;5028545;28;20210;-57
2022/03/15 08:42:32;;;;;;;10.43;7.83;;;;;;;8.14;100.00;101258.56;5029333;28;20181;-58
2022/03/15 08:44:57;;;;;;;8.20;6.67;;;;;;;8.17;100.00;101266.38;5034407;28;20249;-60
2022/03/15 08:47:22;;;;;;;7.43;6.53;;;;;;;8.23;100.00;101265.59;5029605;28;20879;-56
2022/03/15 08:49:48;;;;;;;8.43;6.60;;;;;;;8.26;100.00;101254.44;5032634;28;20210;-59
2022/03/15 08:52:14;;;;;;;7.93;6.27;;;;;;;8.29;100.00;101250.22;5045531;28;20598;-58
2022/03/15 08:54:39;;;;;;;8.67;6.73;;;;;;;8.29;100.00;101247.66;5041437;28;20187;-57
2022/03/15 08:57:05;;;;;;;7.23;6.33;;;;;;;8.29;100.00;101242.50;5041238;28;20214;-60
2022/03/15 08:59:30;;;;;;;7.27;6.57;;;;;;;8.35;100.00;101233.97;5033170;28;20203;-58
2022/03/15 09:01:56;;;;;;;6.50;5.83;;;;;;;8.36;100.00;101230.56;5033149;28;20653;-60
2022/03/15 09:04:22;;;;;;;10.00;6.67;;;;;;;8.36;100.00;101228.84;5029152;28;20190;-58
2022/03/15 09:06:48;;;;;;;9.23;7.30;;;;;;;8.29;100.00;101226.13;5034218;28;20188;-59
2022/03/15 09:09:18;;;;;;;8.00;6.80;;;;;;;8.15;100.00;101220.78;5030239;28;20668;-58
2022/03/15 09:11:45;;;;;;;7.83;6.77;;;;;;;8.11;100.00;101216.41;5032294;28;20480;-61
2022/03/15 09:14:11;;;;;;;12.10;7.80;;;;;;;8.05;100.00;101212.03;5031727;28;20215;-57
2022/03/15 09:16:36;;;;;;;8.63;7.70;;;;;;;8.04;100.00;101205.97;5029376;28;20277;-58
2022/03/15 09:19:02;;;;;;;8.97;7.23;;;;;;;7.96;100.00;101201.53;5024307;28;20210;-57
2022/03/15 09:21:27;;;;;;;11.20;8.23;;;;;;;7.91;100.00;101199.78;5026344;28;20431;-59
2022/03/15 09:23:55;;;;;;;11.17;7.60;;;;;;;7.89;100.00;101195.41;5029136;28;20209;-58
2022/03/15 09:26:21;;;;;;;8.63;7.47;;;;;;;7.85;100.00;101184.19;5031041;28;20185;-58
2022/03/15 09:28:47;;;;;;;7.43;6.73;;;;;;;7.75;100.00;101164.28;5029942;28;20191;-56
2022/03/15 09:31:12;;;;;;;9.27;7.50;;;;;;;7.73;100.00;101171.13;5036195;28;20186;-56
2022/03/15 09:33:38;;;;;;;10.73;7.20;;;;;;;7.74;100.00;101150.50;5031801;28;20453;-59
2022/03/15 09:36:04;;;;;;;9.47;8.37;;;;;;;7.70;100.00;101146.19;5022516;28;20713;-57
2022/03/15 09:38:31;;;;;;;9.77;8.27;;;;;;;7.65;100.00;101139.19;5041182;28;20225;-63
2022/03/15 09:41:02;;;;;;;10.60;7.80;;;;;;;7.59;100.00;101145.09;5023473;28;20347;-57
2022/03/15 09:43:34;;;;;;;8.87;7.60;;;;;;;7.60;100.00;101142.56;5021533;28;20197;-58
2022/03/15 09:46:00;;;;;;;11.37;7.00;;;;;;;7.52;100.00;101127.81;5029708;28;20191;-60
2022/03/15 09:48:27;;;;;;;9.07;7.30;;;;;;;7.47;100.00;101131.19;5023204;28;20218;-58
2022/03/15 09:50:52;;;;;;;8.93;6.87;;;;;;;7.41;100.00;101113.03;5028594;28;20177;-58
2022/03/15 09:53:20;;;;;;;8.20;7.40;;;;;;;7.39;100.00;101117.31;5024965;28;20176;-62
2022/03/15 09:55:46;;;;;;;10.33;7.93;;;;;;;7.42;100.00;101114.75;5029481;28;20198;-59
2022/03/15 09:58:13;;;;;;;9.37;7.20;;;;;;;7.46;100.00;101115.72;5029816;28;20252;-59
2022/03/15 10:00:41;;;;;;;10.50;7.03;;;;;;;7.50;100.00;101114.91;5027722;28;20575;-59
2022/03/15 10:03:07;;;;;;;9.40;6.73;;;;;;;7.52;100.00;101105.50;5029496;28;20273;-58
2022/03/15 10:05:33;;;;;;;10.30;6.80;;;;;;;7.51;100.00;101108.91;5030883;28;20692;-58
2022/03/15 10:07:59;;;;;;;7.47;6.53;;;;;;;7.53;100.00;101114.97;5023914;28;20206;-60
2022/03/15 10:10:24;;;;;;;8.43;6.83;;;;;;;7.59;100.00;101112.50;5013415;28;20186;-61
2022/03/15 10:12:50;;;;;;;9.13;6.80;;;;;;;7.68;100.00;101103.16;5029791;28;20263;-59
2022/03/15 10:15:19;;;;;;;7.57;6.70;;;;;;;7.76;100.00;101099.88;5029404;28;20191;-59
2022/03/15 10:17:53;;;;;;;8.43;7.30;;;;;;;7.88;100.00;101095.75;5032979;28;20680;-59
2022/03/15 10:20:21;;;;;;;7.83;6.97;;;;;;;8.00;100.00;101092.50;5024677;28;20609;-57
2022/03/15 10:23:02;;;;;;;8.67;7.17;;;;;;;8.07;100.00;101084.88;5022853;28;20186;-60
2022/03/15 10:25:30;;;;;;;10.83;7.50;;;;;;;8.15;100.00;101066.06;5015378;28;20182;-57
2022/03/15 10:27:58;;;;;;;9.00;6.20;;;;;;;8.29;100.00;101059.38;5027774;28;20209;-59
2022/03/15 10:30:25;;;;;;;8.53;6.93;;;;;;;8.45;100.00;101050.13;5028827;28;20282;-58
2022/03/15 10:32:51;;;;;;;8.33;6.53;;;;;;;8.50;100.00;101035.59;5033790;28;20237;-56
2022/03/15 10:35:23;;;;;;;7.60;6.77;;;;;;;8.61;100.00;101022.84;5029987;28;20610;-59
2022/03/15 10:37:50;;;;;;;10.23;7.00;;;;;;;8.68;100.00;101029.78;5029984;28;20239;-57
2022/03/15 10:40:16;;;;;;;13.30;7.00;;;;;;;8.65;100.00;101023.72;5028491;28;20372;-58
2022/03/15 10:42:43;;;;;;;8.63;6.77;;;;;;;8.67;100.00;101014.28;5022952;28;20618;-58
2022/03/15 10:45:20;;;;;;;11.93;7.20;;;;;;;8.69;100.00;101010.00;5018746;28;20219;-58
2022/03/15 10:47:50;;;;;;;8.33;6.47;;;;;;;8.75;100.00;101007.47;5023802;28;20211;-61
2022/03/15 10:50:18;;;;;;;7.90;7.10;;;;;;;8.74;100.00;101008.31;5027368;28;20268;-59
2022/03/15 10:52:47;;;;;;;6.80;6.10;;;;;;;8.76;100.00;101005.78;5031045;28;20205;-60
2022/03/15 10:55:25;;;;;;;7.47;6.27;;;;;;;8.91;100.00;101005.94;5028901;28;20175;-59
2022/03/15 10:58:10;;;;;;;7.40;6.67;;;;;;;9.03;100.00;101012.03;5031966;28;20670;-59
2022/03/15 11:00:38;;;;;;;8.80;6.13;;;;;;;9.13;100.00;101006.97;5035012;28;20602;-59
2022/03/15 11:03:13;;;;;;;9.90;6.83;;;;;;;9.20;100.00;101002.72;5044464;28;20179;-60
2022/03/15 11:05:40;;;;;;;10.00;7.40;;;;;;;9.25;100.00;101007.94;5035905;28;20674;-58
2022/03/15 11:08:11;;;;;;;10.57;7.13;;;;;;;9.27;100.00;101013.97;5028200;28;20215;-58
2022/03/15 11:10:38;;;;;;;9.40;6.30;;;;;;;9.35;100.00;101009.72;5035012;28;20331;-61
2022/03/15 11:13:11;;;;;;;7.67;6.27;;;;;;;9.55;100.00;101007.28;5030066;28;20191;-58
2022/03/15 11:15:48;;;;;;;7.80;7.03;;;;;;;9.79;100.00;100999.66;5028471;28;20532;-58
2022/03/15 11:18:16;;;;;;;7.83;7.03;;;;;;;10.01;100.00;100996.34;5028054;28;20294;-59
2022/03/15 11:20:45;;;;;;;8.57;7.77;;;;;;;10.17;100.00;100986.94;5035994;28;20229;-60
2022/03/15 11:23:12;;;;;;;6.60;5.90;;;;;;;10.18;100.00;100987.81;5030953;28;20743;-59